Dearborn, Missouri
Current Conditions -  °F | °C
As of 10:53 AM on Wednesday 26 Nov 2014 (Local Time) from KMCI Reporting Station
Broken Clouds Broken Clouds  
Wind Chill: 32°   Ceiling: 2500
Heat Index: 41°   Visibility: 10mi
Dew Point: 32°   Wind: 21mph
Humidity: 70%   Direction: 320°NW
Pressure: 29.98"   Gusts: 30mph
Location:  39.52°N, 94.77°W
Report Text: KMCI 261653Z 32018G26KT 10SM BKN025 BKN080 05/00 A2998 RMK AO2 PK WND 32030/1637 SLP157 T00500000
Loading
Personal Weather Stations






























Interactive Weather Map New forecast layout! Learn more

10-Day Weather Forecast

Advertisements
Track Severe Weather on mobile